createdAt,value
2022-11-24T00:01:31.080Z,99044.44
2022-11-24T00:04:04.654Z,99040.13
2022-11-24T00:06:33.995Z,99031.16
2022-11-24T00:09:03.336Z,99038.97
2022-11-24T00:11:39.029Z,99036.06
2022-11-24T00:14:09.582Z,99042.47
2022-11-24T00:16:38.759Z,99034.19
2022-11-24T00:19:11.394Z,99049.25
2022-11-24T00:21:40.294Z,99039.56
2022-11-24T00:24:08.017Z,99041.91
2022-11-24T00:26:37.478Z,99047.28
2022-11-24T00:29:07.572Z,99046.47
2022-11-24T00:31:38.362Z,99049.97
2022-11-24T00:34:12.805Z,99045.66
2022-11-24T00:36:42.370Z,99057.56
2022-11-24T00:39:13.522Z,99061.88
2022-11-24T00:41:43.900Z,99062.47
2022-11-24T00:44:11.578Z,99059.53
2022-11-24T00:46:39.527Z,99064.66
2022-11-24T00:49:10.078Z,99066.31
2022-11-24T00:51:37.640Z,99074.94
2022-11-24T00:54:06.331Z,99073.78
2022-11-24T00:56:36.150Z,99075.44
2022-11-24T00:59:05.423Z,99073.56
2022-11-24T01:01:35.254Z,99081.13
2022-11-24T01:04:05.402Z,99074.94
2022-11-24T01:06:35.781Z,99079.03
2022-11-24T01:09:04.741Z,99085.81
2022-11-24T01:11:50.752Z,99081.47
2022-11-24T01:14:18.928Z,99077.75
2022-11-24T01:16:46.828Z,99083.72
2022-11-24T01:19:14.359Z,99082.28
2022-11-24T01:21:41.965Z,99082.66
2022-11-24T01:24:13.176Z,99073.19
2022-11-24T01:26:42.013Z,99081.84
2022-11-24T01:29:11.818Z,99084.28
2022-11-24T01:31:39.419Z,99073.78
2022-11-24T01:34:07.293Z,99081.84
2022-11-24T01:36:35.345Z,99080.53
2022-11-24T01:39:05.277Z,99078.66
2022-11-24T01:41:34.683Z,99083.25
2022-11-24T01:44:25.125Z,99088.13
2022-11-24T01:47:15.860Z,99084.63
2022-11-24T01:49:52.788Z,99095.16
2022-11-24T01:52:23.044Z,99086.16
2022-11-24T01:54:56.115Z,99088.13
2022-11-24T01:57:44.623Z,99090.00
2022-11-24T02:00:15.393Z,99091.88
2022-11-24T02:02:45.473Z,99088.94
2022-11-24T02:05:20.908Z,99085.69
2022-11-24T02:07:51.992Z,99087.31
2022-11-24T02:10:21.117Z,99088.38
2022-11-24T02:12:52.468Z,99091.06
2022-11-24T02:15:21.158Z,99091.06
2022-11-24T02:17:51.620Z,99095.53
2022-11-24T02:20:19.628Z,99086.84
2022-11-24T02:23:08.810Z,99092.84
2022-11-24T02:26:12.523Z,99094.09
2022-11-24T02:28:40.166Z,99091.66
2022-11-24T02:31:10.409Z,99093.28
2022-11-24T02:33:40.045Z,99095.97
2022-11-24T02:36:10.343Z,99091.91
2022-11-24T02:38:38.001Z,99094.34
2022-11-24T02:41:11.434Z,99092.72
2022-11-24T02:43:45.281Z,99097.28
2022-11-24T02:46:12.997Z,99103.81
2022-11-24T02:48:40.528Z,99098.66
2022-11-24T02:51:08.059Z,99096.22
2022-11-24T02:53:35.867Z,99093.78
2022-11-24T02:56:03.915Z,99096.22
2022-11-24T02:58:31.482Z,99099.38
2022-11-24T03:00:59.876Z,99103.72
2022-11-24T03:03:28.539Z,99108.03
2022-11-24T03:05:56.106Z,99096.47
2022-11-24T03:08:23.867Z,99103.38
2022-11-24T03:10:51.506Z,99097.88
2022-11-24T03:13:21.173Z,99102.78
2022-11-24T03:15:48.782Z,99107.34
2022-11-24T03:18:16.462Z,99103.75
2022-11-24T03:20:44.210Z,99120.44
2022-11-24T03:23:11.903Z,99105.97
2022-11-24T03:25:39.751Z,99118.81
2022-11-24T03:28:12.334Z,99116.37
2022-11-24T03:30:40.997Z,99118.25
2022-11-24T03:33:08.544Z,99120.94
2022-11-24T03:35:36.072Z,99123.84
2022-11-24T03:38:04.980Z,99130.06
2022-11-24T03:40:32.517Z,99118.94
2022-11-24T03:43:00.064Z,99123.84
2022-11-24T03:48:17.387Z,99122.47
2022-11-24T03:50:53.073Z,99122.47
2022-11-24T03:53:21.949Z,99125.63
2022-11-24T03:55:49.517Z,99119.06
2022-11-24T03:58:19.969Z,99121.16
2022-11-24T04:00:50.254Z,99119.19
2022-11-24T04:03:19.162Z,99128.06
2022-11-24T04:05:47.802Z,99136.12
2022-11-24T04:08:17.996Z,99129.59
2022-11-24T04:10:52.048Z,99131.94
2022-11-24T04:13:21.147Z,99131.00
2022-11-24T04:15:51.167Z,99130.53
2022-11-24T04:18:19.088Z,99136.72
2022-11-24T04:20:46.806Z,99137.78
2022-11-24T04:23:14.331Z,99142.34
2022-11-24T04:25:43.673Z,99148.75
2022-11-24T04:28:13.919Z,99159.97
2022-11-24T04:30:44.693Z,99154.81
2022-11-24T04:33:13.338Z,99158.78
2022-11-24T04:35:40.934Z,99166.84
2022-11-24T04:38:08.473Z,99164.41
2022-11-24T04:40:36.050Z,99168.38
2022-11-24T04:43:03.941Z,99171.53
2022-11-24T04:45:31.450Z,99172.56
2022-11-24T04:48:00.310Z,99182.16
2022-11-24T04:50:30.277Z,99188.00
2022-11-24T04:52:58.170Z,99184.72
2022-11-24T04:55:29.455Z,99188.47
2022-11-24T04:57:57.090Z,99190.09
2022-11-24T05:00:24.620Z,99182.34
2022-11-24T05:02:52.158Z,99195.09
2022-11-24T05:05:20.438Z,99201.31
2022-11-24T05:07:49.045Z,99199.91
2022-11-24T05:10:34.229Z,99208.31
2022-11-24T05:13:02.795Z,99206.66
2022-11-24T05:15:30.590Z,99213.44
2022-11-24T05:17:58.663Z,99209.47
2022-11-24T05:20:29.567Z,99206.56
2022-11-24T05:23:04.973Z,99210.22
2022-11-24T05:25:33.580Z,99205.66
2022-11-24T05:28:02.972Z,99208.78
2022-11-24T05:30:31.664Z,99203.28
2022-11-24T05:32:59.815Z,99207.16
2022-11-24T05:35:27.444Z,99212.28
2022-11-24T05:37:55.398Z,99207.75
2022-11-24T05:40:22.952Z,99205.28
2022-11-24T05:42:50.464Z,99206.25
2022-11-24T05:45:20.758Z,99211.75
2022-11-24T05:47:49.800Z,99221.78
2022-11-24T05:50:19.289Z,99219.44
2022-11-24T05:52:49.174Z,99211.16
2022-11-24T05:55:21.454Z,99214.66
2022-11-24T05:57:49.034Z,99222.72
2022-11-24T06:00:18.207Z,99228.09
2022-11-24T06:02:45.861Z,99227.03
2022-11-24T06:05:15.961Z,99237.44
2022-11-24T06:07:43.593Z,99231.03
2022-11-24T06:10:13.690Z,99228.78
2022-11-24T06:12:41.206Z,99227.88
2022-11-24T06:15:09.426Z,99224.94
2022-11-24T06:17:36.954Z,99236.97
2022-11-24T06:20:07.578Z,99239.66
2022-11-24T06:22:35.305Z,99252.41
2022-11-24T06:25:05.833Z,99222.22
2022-11-24T06:27:35.894Z,99251.59
2022-11-24T06:30:03.965Z,99266.06
2022-11-24T06:32:31.634Z,99273.00
2022-11-24T06:34:59.786Z,99271.47
2022-11-24T06:37:27.729Z,99280.84
2022-11-24T06:39:55.766Z,99289.25
2022-11-24T06:42:23.318Z,99289.47
2022-11-24T06:44:53.285Z,99288.66
2022-11-24T06:47:23.340Z,99304.09
2022-11-24T06:49:50.844Z,99296.84
2022-11-24T06:52:18.519Z,99294.97
2022-11-24T06:54:46.138Z,99301.88
2022-11-24T06:57:16.102Z,99307.37
2022-11-24T06:59:46.001Z,99306.34
2022-11-24T07:02:13.534Z,99323.19
2022-11-24T07:04:41.053Z,99320.59
2022-11-24T07:07:08.818Z,99320.59
2022-11-24T07:09:36.416Z,99328.22
2022-11-24T07:12:04.877Z,99338.84
2022-11-24T07:14:33.445Z,99347.28
2022-11-24T07:17:04.822Z,99328.44
2022-11-24T07:19:32.497Z,99328.94
2022-11-24T07:22:00.481Z,99348.69
2022-11-24T07:24:28.267Z,99346.09
2022-11-24T07:26:55.838Z,99343.28
2022-11-24T07:29:23.494Z,99338.72
2022-11-24T07:31:51.082Z,99330.66
2022-11-24T07:34:19.182Z,99343.47
2022-11-24T07:36:46.815Z,99345.97
2022-11-24T07:39:14.330Z,99332.16
2022-11-24T07:41:41.878Z,99344.66
2022-11-24T07:44:09.406Z,99338.13
2022-11-24T07:46:37.009Z,99339.66
2022-11-24T07:49:04.714Z,99347.88
2022-11-24T07:51:32.287Z,99358.38
2022-11-24T07:54:01.697Z,99351.25
2022-11-24T07:56:32.020Z,99359.94
2022-11-24T07:59:00.748Z,99355.84
2022-11-24T08:01:28.419Z,99362.63
2022-11-24T08:04:00.541Z,99365.31
2022-11-24T08:06:38.608Z,99357.34
2022-11-24T08:09:08.410Z,99368.78
2022-11-24T08:11:36.538Z,99366.44
2022-11-24T08:14:04.071Z,99367.25
2022-11-24T08:16:33.185Z,99359.56
2022-11-24T08:19:00.820Z,99350.75
2022-11-24T08:21:30.915Z,99365.72
2022-11-24T08:23:58.633Z,99372.06
2022-11-24T08:26:26.821Z,99366.91
2022-11-24T08:28:56.982Z,99370.66
2022-11-24T08:31:33.426Z,99376.06
2022-11-24T08:34:03.155Z,99382.34
2022-11-24T08:36:30.798Z,99398.53
2022-11-24T08:39:00.298Z,99388.22
2022-11-24T08:41:29.023Z,99403.66
2022-11-24T08:43:57.163Z,99408.09
2022-11-24T08:46:25.022Z,99393.63
2022-11-24T08:48:54.583Z,99400.41
2022-11-24T08:51:26.265Z,99400.28
2022-11-24T08:53:58.892Z,99406.37
2022-11-24T08:56:33.715Z,99404.38
2022-11-24T08:59:01.846Z,99408.47
2022-11-24T09:01:30.183Z,99430.97
2022-11-24T09:03:58.413Z,99428.94
2022-11-24T09:06:30.832Z,99417.09
2022-11-24T09:08:59.327Z,99422.97
2022-11-24T09:11:28.040Z,99419.69
2022-11-24T09:13:56.286Z,99423.78
2022-11-24T09:16:27.281Z,99423.56
2022-11-24T09:19:01.672Z,99427.53
2022-11-24T09:21:30.792Z,99429.19
2022-11-24T09:23:58.582Z,99430.34
2022-11-24T09:26:29.512Z,99430.72
2022-11-24T09:28:58.596Z,99438.06
2022-11-24T09:31:34.586Z,99432.53
2022-11-24T09:34:03.869Z,99432.97
2022-11-24T09:36:32.364Z,99432.47
2022-11-24T09:39:00.274Z,99438.53
2022-11-24T09:41:41.975Z,99438.88
2022-11-24T09:44:38.191Z,99445.06
2022-11-24T09:47:18.167Z,99436.75
2022-11-24T09:49:51.648Z,99428.28
2022-11-24T09:52:44.802Z,99435.56
2022-11-24T09:55:43.570Z,99423.66
2022-11-24T09:58:37.883Z,99424.72
2022-11-24T10:01:19.216Z,99401.00
2022-11-24T10:03:50.461Z,99406.31
2022-11-24T10:06:36.252Z,99416.44
2022-11-24T10:09:06.442Z,99405.78
2022-11-24T10:11:46.604Z,99407.09
2022-11-24T10:14:39.169Z,99421.37
2022-11-24T10:17:24.962Z,99410.34
2022-11-24T10:20:04.483Z,99408.72
2022-11-24T10:22:53.596Z,99409.53
2022-11-24T10:25:27.229Z,99411.66
2022-11-24T10:28:09.540Z,99401.69
2022-11-24T10:30:38.014Z,99410.59
2022-11-24T10:33:24.239Z,99419.50
2022-11-24T10:36:01.666Z,99409.78
2022-11-24T10:38:38.318Z,99427.91
2022-11-24T10:41:08.909Z,99429.31
2022-11-24T10:43:36.442Z,99422.16
2022-11-24T10:46:20.278Z,99426.00
2022-11-24T10:49:20.323Z,99419.09
2022-11-24T10:52:01.596Z,99424.94
2022-11-24T10:54:29.795Z,99434.66
2022-11-24T10:56:57.457Z,99445.78
2022-11-24T10:59:34.251Z,99451.84
2022-11-24T11:02:02.629Z,99449.03
2022-11-24T11:04:35.953Z,99457.47
2022-11-24T11:07:21.988Z,99468.09
2022-11-24T11:09:50.574Z,99471.12
2022-11-24T11:12:45.716Z,99466.91
2022-11-24T11:15:29.835Z,99480.38
2022-11-24T11:18:00.303Z,99476.13
2022-11-24T11:20:33.595Z,99474.50
2022-11-24T11:23:14.327Z,99491.50
2022-11-24T11:25:45.388Z,99497.84
2022-11-24T11:28:29.422Z,99499.09
2022-11-24T11:31:17.772Z,99498.94
2022-11-24T11:34:35.156Z,99504.78
2022-11-24T11:37:04.691Z,99508.81
2022-11-24T11:39:32.181Z,99507.03
2022-11-24T11:42:08.003Z,99502.78
2022-11-24T11:44:38.391Z,99505.22
2022-11-24T11:47:20.270Z,99506.16
2022-11-24T11:49:49.498Z,99502.97
2022-11-24T11:52:43.481Z,99505.91
2022-11-24T11:55:29.831Z,99505.41
2022-11-24T11:58:14.602Z,99515.50
2022-11-24T12:00:54.281Z,99506.72
2022-11-24T12:03:30.770Z,99510.59
2022-11-24T12:06:24.789Z,99511.31
2022-11-24T12:09:20.921Z,99509.03
2022-11-24T12:12:01.013Z,99526.03
2022-11-24T12:14:51.598Z,99521.22
2022-11-24T12:17:37.794Z,99515.06
2022-11-24T12:20:15.534Z,99502.31
2022-11-24T12:22:53.433Z,99512.75
2022-11-24T12:25:29.257Z,99513.97
2022-11-24T12:28:03.778Z,99506.63
2022-11-24T12:30:54.542Z,99519.56
2022-11-24T12:33:46.200Z,99522.66
2022-11-24T12:36:47.186Z,99524.75
2022-11-24T12:39:52.381Z,99523.94
2022-11-24T12:42:37.471Z,99523.28
2022-11-24T12:45:13.107Z,99520.94
2022-11-24T12:48:18.731Z,99531.53
2022-11-24T12:50:47.079Z,99540.94
2022-11-24T12:53:31.949Z,99534.16
2022-11-24T12:56:10.393Z,99536.87
2022-11-24T12:58:50.308Z,99548.66
2022-11-24T13:01:36.760Z,99552.72
2022-11-24T13:04:16.475Z,99548.94
2022-11-24T13:06:59.224Z,99558.16
2022-11-24T13:09:26.771Z,99554.78
2022-11-24T13:12:09.822Z,99552.88
2022-11-24T13:14:40.042Z,99550.16
2022-11-24T13:17:47.575Z,99541.78
2022-11-24T13:20:21.607Z,99557.63
2022-11-24T13:23:03.742Z,99553.16
2022-11-24T13:25:43.056Z,99562.94
2022-11-24T13:29:01.873Z,99559.78
2022-11-24T13:31:32.262Z,99570.72
2022-11-24T13:33:59.906Z,99565.00
2022-11-24T13:36:28.719Z,99561.00
2022-11-24T13:38:56.353Z,99569.66
2022-11-24T13:41:35.246Z,99557.25
2022-11-24T13:44:14.725Z,99567.78
2022-11-24T13:47:03.281Z,99560.28
2022-11-24T13:49:43.692Z,99555.94
2022-11-24T13:52:48.455Z,99560.41
2022-11-24T13:55:15.999Z,99570.97
2022-11-24T13:57:47.766Z,99565.56
2022-11-24T14:00:30.844Z,99572.50
2022-11-24T14:03:21.680Z,99577.09
2022-11-24T14:05:53.327Z,99583.31
2022-11-24T14:08:26.813Z,99574.06
2022-11-24T14:11:00.860Z,99584.59
2022-11-24T14:13:30.972Z,99582.16
2022-11-24T14:16:04.442Z,99592.94
2022-11-24T14:18:33.123Z,99598.69
2022-11-24T14:21:20.832Z,99605.37
2022-11-24T14:23:55.288Z,99596.94
2022-11-24T14:26:26.456Z,99606.31
2022-11-24T14:28:55.348Z,99608.88
2022-11-24T14:31:27.784Z,99608.31
2022-11-24T14:34:13.537Z,99616.88
2022-11-24T14:36:43.962Z,99617.34
2022-11-24T14:39:20.450Z,99621.59
2022-11-24T14:42:15.859Z,99613.97
2022-11-24T14:44:49.573Z,99619.25
2022-11-24T14:47:33.669Z,99629.91
2022-11-24T14:50:12.505Z,99625.22
2022-11-24T14:52:47.092Z,99625.69
2022-11-24T14:55:30.974Z,99640.94
2022-11-24T14:58:00.199Z,99639.19
2022-11-24T15:00:34.740Z,99635.31
2022-11-24T15:03:02.650Z,99652.16
2022-11-24T15:05:52.025Z,99658.84
2022-11-24T15:08:19.741Z,99657.66
2022-11-24T15:10:47.670Z,99651.91
2022-11-24T15:13:26.071Z,99658.00
2022-11-24T15:16:04.508Z,99658.13
2022-11-24T15:18:48.882Z,99663.81
2022-11-24T15:21:19.439Z,99661.19
2022-11-24T15:24:18.741Z,99665.63
2022-11-24T15:26:46.920Z,99662.00
2022-11-24T15:29:14.609Z,99660.78
2022-11-24T15:31:49.227Z,99644.09
2022-11-24T15:34:20.822Z,99660.97
2022-11-24T15:36:48.358Z,99675.34
2022-11-24T15:39:18.040Z,99669.66
2022-11-24T15:41:47.047Z,99674.91
2022-11-24T15:44:14.559Z,99682.84
2022-11-24T15:46:42.325Z,99680.63
2022-11-24T15:49:09.887Z,99677.34
2022-11-24T15:51:43.316Z,99685.41
2022-11-24T15:54:15.767Z,99664.09
2022-11-24T15:56:44.891Z,99689.75
2022-11-24T15:59:20.224Z,99688.53
2022-11-24T16:01:50.724Z,99689.37
2022-11-24T16:04:18.494Z,99686.22
2022-11-24T16:06:46.039Z,99673.13
2022-11-24T16:09:16.823Z,99696.63
2022-11-24T16:11:44.393Z,99694.75
2022-11-24T16:14:12.024Z,99696.16
2022-11-24T16:16:40.785Z,99694.97
2022-11-24T16:19:10.348Z,99696.63
2022-11-24T16:21:37.901Z,99699.31
2022-11-24T16:24:05.572Z,99693.94
2022-11-24T16:26:35.298Z,99700.94
2022-11-24T16:29:02.789Z,99705.28
2022-11-24T16:31:30.472Z,99698.84
2022-11-24T16:33:58.378Z,99668.97
2022-11-24T16:36:26.116Z,99698.31
2022-11-24T16:38:53.624Z,99692.12
2022-11-24T16:41:21.761Z,99701.25
2022-11-24T16:43:51.702Z,99695.84
2022-11-24T16:46:21.106Z,99704.97
2022-11-24T16:48:52.039Z,99708.34
2022-11-24T16:51:21.787Z,99701.41
2022-11-24T16:53:49.822Z,99714.47
2022-11-24T16:56:20.730Z,99715.53
2022-11-24T16:58:48.320Z,99714.69
2022-11-24T17:01:16.032Z,99721.66
2022-11-24T17:03:43.770Z,99716.56
2022-11-24T17:06:15.813Z,99706.41
2022-11-24T17:08:44.808Z,99719.63
2022-11-24T17:11:18.115Z,99711.19
2022-11-24T17:13:47.287Z,99716.34
2022-11-24T17:16:17.058Z,99722.38
2022-11-24T17:18:46.369Z,99719.16
2022-11-24T17:21:19.292Z,99716.47
2022-11-24T17:23:47.752Z,99724.31
2022-11-24T17:26:19.425Z,99721.09
2022-11-24T17:28:47.047Z,99725.28
2022-11-24T17:31:25.009Z,99722.81
2022-11-24T17:33:55.186Z,99705.50
2022-11-24T17:36:23.331Z,99736.78
2022-11-24T17:38:51.005Z,99736.41
2022-11-24T17:41:19.732Z,99733.94
2022-11-24T17:43:51.630Z,99749.31
2022-11-24T17:46:20.335Z,99745.41
2022-11-24T17:48:48.257Z,99753.47
2022-11-24T17:51:18.104Z,99759.50
2022-11-24T17:53:50.363Z,99766.91
2022-11-24T17:56:23.664Z,99770.47
2022-11-24T17:58:55.978Z,99769.81
2022-11-24T18:01:28.661Z,99775.41
2022-11-24T18:03:56.834Z,99776.44
2022-11-24T18:06:25.560Z,99782.44
2022-11-24T18:08:54.732Z,99779.13
2022-11-24T18:11:32.435Z,99782.66
2022-11-24T18:14:03.346Z,99790.88
2022-11-24T18:16:35.664Z,99797.72
2022-11-24T18:19:10.964Z,99772.19
2022-11-24T18:21:43.765Z,99797.72
2022-11-24T18:24:12.446Z,99791.50
2022-11-24T18:26:41.601Z,99799.34
2022-11-24T18:29:09.588Z,99797.28
2022-11-24T18:31:38.239Z,99797.28
2022-11-24T18:34:07.104Z,99803.94
2022-11-24T18:36:39.912Z,99777.63
2022-11-24T18:39:09.147Z,99802.50
2022-11-24T18:41:37.127Z,99809.75
2022-11-24T18:44:07.977Z,99810.56
2022-11-24T18:46:35.895Z,99807.88
2022-11-24T18:49:05.067Z,99807.50
2022-11-24T18:51:32.628Z,99821.09
2022-11-24T18:54:02.477Z,99814.25
2022-11-24T18:56:30.440Z,99813.88
2022-11-24T18:59:02.983Z,99817.53
2022-11-24T19:01:31.160Z,99833.03
2022-11-24T19:04:02.890Z,99822.50
2022-11-24T19:06:35.739Z,99825.00
2022-11-24T19:09:15.488Z,99829.16
2022-11-24T19:11:51.078Z,99831.31
2022-11-24T19:14:19.819Z,99833.78
2022-11-24T19:16:50.249Z,99846.22
2022-11-24T19:19:18.065Z,99846.84
2022-11-24T19:21:47.984Z,99850.94
2022-11-24T19:24:15.519Z,99848.25
2022-11-24T19:26:43.248Z,99863.78
2022-11-24T19:29:13.363Z,99864.37
2022-11-24T19:31:41.168Z,99872.28
2022-11-24T19:34:08.981Z,99869.59
2022-11-24T19:36:36.763Z,99872.50
2022-11-24T19:39:05.257Z,99871.69
2022-11-24T19:41:34.234Z,99878.31
2022-11-24T19:44:01.800Z,99876.88
2022-11-24T19:46:30.401Z,99878.75
2022-11-24T19:49:03.229Z,99879.37
2022-11-24T19:51:34.765Z,99886.00
2022-11-24T19:54:06.643Z,99889.91
2022-11-24T19:56:36.962Z,99896.47
2022-11-24T19:59:06.890Z,99896.31
2022-11-24T20:01:40.219Z,99902.28
2022-11-24T20:04:15.599Z,99910.72
2022-11-24T20:06:46.102Z,99912.78
2022-11-24T20:09:16.035Z,99923.09
2022-11-24T20:11:43.742Z,99924.31
2022-11-24T20:14:16.042Z,99918.09
2022-11-24T20:16:45.543Z,99926.56
2022-11-24T20:19:15.882Z,99923.09
2022-11-24T20:21:46.397Z,99927.81
2022-11-24T20:24:20.071Z,99938.56
2022-11-24T20:26:53.260Z,99946.41
2022-11-24T20:29:23.765Z,99943.56
2022-11-24T20:31:56.786Z,99954.75
2022-11-24T20:34:26.200Z,99959.28
2022-11-24T20:36:55.845Z,99960.53
2022-11-24T20:39:27.014Z,99938.25
2022-11-24T20:41:57.678Z,99971.72
2022-11-24T20:44:28.101Z,99975.22
2022-11-24T20:46:58.161Z,99969.81
2022-11-24T20:49:26.105Z,99975.59
2022-11-24T20:51:54.906Z,99976.81
2022-11-24T20:54:25.575Z,99974.34
2022-11-24T20:56:55.716Z,99977.47
2022-11-24T20:59:27.000Z,99987.38
2022-11-24T21:01:56.176Z,99979.50
2022-11-24T21:04:26.507Z,99980.53
2022-11-24T21:06:54.886Z,99976.16
2022-11-24T21:09:22.543Z,99977.81
2022-11-24T21:11:50.252Z,99988.78
2022-11-24T21:14:20.243Z,99989.00
2022-11-24T21:16:47.811Z,99971.03
2022-11-24T21:19:18.181Z,99986.91
2022-11-24T21:21:47.485Z,99984.19
2022-11-24T21:24:19.496Z,99994.72
2022-11-24T21:26:51.253Z,99991.44
2022-11-24T21:29:23.502Z,99987.09
2022-11-24T21:31:56.049Z,99992.50
2022-11-24T21:34:23.643Z,99984.88
2022-11-24T21:36:52.680Z,99994.97
2022-11-24T21:39:20.607Z,99986.31
2022-11-24T21:41:48.374Z,99984.88
2022-11-24T21:44:18.400Z,99993.75
2022-11-24T21:46:54.333Z,99996.84
2022-11-24T21:49:23.474Z,99997.69
2022-11-24T21:51:55.463Z,99984.47
2022-11-24T21:54:29.495Z,99993.16
2022-11-24T21:56:57.032Z,100000.00
2022-11-24T21:59:24.552Z,100004.56
2022-11-24T22:01:55.825Z,100017.22
2022-11-24T22:04:23.810Z,100016.19
2022-11-24T22:06:54.323Z,100025.50
2022-11-24T22:09:24.610Z,100017.47
2022-11-24T22:11:53.301Z,100024.72
2022-11-24T22:14:20.843Z,100023.47
2022-11-24T22:16:48.427Z,100022.44
2022-11-24T22:19:18.559Z,100038.94
2022-11-24T22:21:46.260Z,100032.34
2022-11-24T22:24:13.976Z,100039.16
2022-11-24T22:26:42.762Z,100038.78
2022-11-24T22:29:10.416Z,100040.25
2022-11-24T22:31:40.557Z,100044.37
2022-11-24T22:34:10.642Z,100047.28
2022-11-24T22:36:41.779Z,100048.53
2022-11-24T22:39:13.133Z,100053.69
2022-11-24T22:41:40.648Z,100047.91
2022-11-24T22:44:08.262Z,100043.78
2022-11-24T22:46:35.768Z,100046.03
2022-11-24T22:49:06.935Z,100058.00
2022-11-24T22:51:35.745Z,100058.84
2022-11-24T22:54:04.980Z,100060.87
2022-11-24T22:56:35.083Z,100059.84
2022-11-24T22:59:06.611Z,100055.50
2022-11-24T23:01:34.632Z,100065.81
2022-11-24T23:04:04.967Z,100057.16
2022-11-24T23:06:34.028Z,100068.31
2022-11-24T23:09:02.892Z,100073.50
2022-11-24T23:11:38.573Z,100075.59
2022-11-24T23:14:15.683Z,100049.56
2022-11-24T23:16:43.699Z,100075.16
2022-11-24T23:19:15.042Z,100074.37
2022-11-24T23:21:42.620Z,100070.00
2022-11-24T23:24:16.046Z,100084.69
2022-11-24T23:26:43.665Z,100029.72
2022-11-24T23:29:13.666Z,100077.00
2022-11-24T23:31:43.545Z,100060.66
2022-11-24T23:34:11.231Z,100076.94
2022-11-24T23:36:38.804Z,100083.72
2022-11-24T23:39:14.372Z,100091.31
2022-11-24T23:41:42.348Z,100087.97
2022-11-24T23:44:09.859Z,100097.00
2022-11-24T23:46:37.453Z,100096.97
2022-11-24T23:49:05.039Z,100100.06
2022-11-24T23:51:34.077Z,100103.97
2022-11-24T23:54:04.435Z,100108.69
2022-11-24T23:56:33.622Z,100100.19
2022-11-24T23:59:05.075Z,100102.84
